createdAt,value
2024-03-07T00:00:16.207Z,5.40
2024-03-07T00:02:51.376Z,5.30
2024-03-07T00:05:19.882Z,5.30
2024-03-07T00:07:47.669Z,5.30
2024-03-07T00:10:16.627Z,5.20
2024-03-07T00:12:44.512Z,5.10
2024-03-07T00:15:12.884Z,5.20
2024-03-07T00:17:40.387Z,5.10
2024-03-07T00:20:15.162Z,5.10
2024-03-07T00:22:42.718Z,5.00
2024-03-07T00:25:10.263Z,5.00
2024-03-07T00:27:37.671Z,5.00
2024-03-07T00:30:10.285Z,5.00
2024-03-07T00:35:09.782Z,4.90
2024-03-07T00:37:37.255Z,4.90
2024-03-07T00:42:31.263Z,4.80
2024-03-07T00:47:25.919Z,4.60
2024-03-07T00:49:52.605Z,4.60
2024-03-07T00:52:19.452Z,4.50
2024-03-07T00:54:46.147Z,4.40
2024-03-07T00:57:12.848Z,4.30
2024-03-07T01:04:34.994Z,4.20
2024-03-07T01:07:02.366Z,4.10
2024-03-07T01:09:30.080Z,4.00
2024-03-07T01:11:57.683Z,4.00
2024-03-07T01:16:51.875Z,3.80
2024-03-07T01:19:18.746Z,3.80
2024-03-07T01:24:13.081Z,3.80
2024-03-07T01:29:08.336Z,3.70
2024-03-07T01:31:35.537Z,3.70
2024-03-07T01:36:29.812Z,3.70
2024-03-07T01:41:23.738Z,3.50
2024-03-07T01:46:17.535Z,3.30
2024-03-07T01:48:44.872Z,3.20
2024-03-07T01:53:39.568Z,3.20
2024-03-07T01:56:06.721Z,3.20
2024-03-07T01:58:34.181Z,3.20
2024-03-07T02:01:01.535Z,3.10
2024-03-07T02:05:57.666Z,3.20
2024-03-07T02:10:51.711Z,3.10
2024-03-07T02:13:18.649Z,3.10
2024-03-07T02:20:45.362Z,3.00
2024-03-07T02:23:12.152Z,2.90
2024-03-07T02:25:38.938Z,2.90
2024-03-07T02:28:06.145Z,2.90
2024-03-07T02:33:07.405Z,2.90
2024-03-07T02:35:38.130Z,2.90
2024-03-07T02:38:06.279Z,2.90
2024-03-07T02:40:33.536Z,2.90
2024-03-07T02:47:55.411Z,2.90
2024-03-07T02:50:25.856Z,2.90
2024-03-07T03:05:22.122Z,2.50
2024-03-07T03:07:55.839Z,2.50
2024-03-07T03:10:34.388Z,2.40
2024-03-07T03:13:02.014Z,2.40
2024-03-07T03:15:28.986Z,2.30
2024-03-07T03:23:10.506Z,2.20
2024-03-07T03:25:43.201Z,2.20
2024-03-07T03:30:42.398Z,2.20
2024-03-07T03:33:09.297Z,2.20
2024-03-07T03:35:40.516Z,2.20
2024-03-07T03:38:08.475Z,2.20
2024-03-07T03:40:35.545Z,2.10
2024-03-07T03:45:29.662Z,2.10
2024-03-07T03:50:26.887Z,2.20
2024-03-07T03:55:21.826Z,1.90
2024-03-07T03:57:48.668Z,2.00
2024-03-07T04:00:15.792Z,2.00
2024-03-07T04:02:49.125Z,1.90
2024-03-07T04:05:18.188Z,1.90
2024-03-07T04:10:13.623Z,1.90
2024-03-07T04:12:41.912Z,1.80
2024-03-07T04:15:14.741Z,1.80
2024-03-07T04:20:11.769Z,1.90
2024-03-07T04:25:08.247Z,1.90
2024-03-07T04:30:05.753Z,2.00
2024-03-07T04:37:28.303Z,1.90
2024-03-07T04:47:16.560Z,1.80
2024-03-07T04:49:44.699Z,1.90
2024-03-07T04:54:38.504Z,1.90
2024-03-07T05:11:56.812Z,2.20
2024-03-07T05:19:34.261Z,2.30
2024-03-07T05:36:48.047Z,2.60
2024-03-07T05:39:16.645Z,2.80
2024-03-07T05:41:49.237Z,2.80
2024-03-07T05:46:50.706Z,2.90
2024-03-07T05:54:18.247Z,3.00
2024-03-07T05:56:44.886Z,3.10
2024-03-07T06:04:07.703Z,3.20
2024-03-07T06:06:36.448Z,3.20
2024-03-07T06:09:08.740Z,3.30
2024-03-07T06:11:39.908Z,3.20
2024-03-07T06:14:07.952Z,3.40
2024-03-07T06:16:37.309Z,3.40
2024-03-07T06:19:05.902Z,3.50
2024-03-07T06:21:33.862Z,3.60
2024-03-07T06:24:01.663Z,2.80
2024-03-07T06:26:42.312Z,3.60
2024-03-07T06:34:06.347Z,3.80
2024-03-07T06:39:00.702Z,3.80
2024-03-07T06:41:27.669Z,3.90
2024-03-07T06:43:56.278Z,3.90
2024-03-07T06:48:50.428Z,4.00
2024-03-07T06:56:17.596Z,4.10
2024-03-07T07:11:07.363Z,4.30
2024-03-07T07:13:34.432Z,4.40
2024-03-07T07:16:02.259Z,4.40
2024-03-07T07:18:29.504Z,4.50
2024-03-07T07:28:19.078Z,5.60
2024-03-07T07:33:15.153Z,4.70
2024-03-07T07:38:12.017Z,4.90
2024-03-07T07:48:04.445Z,5.10
2024-03-07T07:52:59.454Z,5.20
2024-03-07T07:55:28.049Z,5.20
2024-03-07T07:57:56.466Z,5.20
2024-03-07T08:00:29.580Z,5.30
2024-03-07T08:03:02.241Z,5.40
2024-03-07T08:05:31.366Z,5.40
2024-03-07T08:08:08.888Z,5.40
2024-03-07T08:10:37.053Z,5.40
2024-03-07T08:13:06.916Z,5.50
2024-03-07T08:15:33.766Z,5.60
2024-03-07T08:18:01.287Z,10.40
2024-03-07T08:20:29.072Z,5.50
2024-03-07T08:22:56.721Z,5.60
2024-03-07T08:25:25.958Z,5.60
2024-03-07T08:27:54.587Z,5.60
2024-03-07T08:30:21.493Z,5.70
2024-03-07T08:32:50.351Z,5.60
2024-03-07T08:35:17.627Z,5.60
2024-03-07T08:37:46.542Z,5.60
2024-03-07T08:40:20.220Z,5.70
2024-03-07T08:43:05.578Z,5.70
2024-03-07T08:45:35.265Z,5.70
2024-03-07T08:48:05.248Z,5.80
2024-03-07T08:50:34.965Z,5.80
2024-03-07T08:53:05.657Z,5.90
2024-03-07T08:55:32.540Z,5.90
2024-03-07T09:00:30.221Z,6.00
2024-03-07T09:03:00.215Z,6.00
2024-03-07T09:05:28.523Z,6.10
2024-03-07T09:07:56.174Z,6.10
2024-03-07T09:10:22.924Z,6.20
2024-03-07T09:12:52.931Z,6.30
2024-03-07T09:15:22.381Z,6.20
2024-03-07T09:17:49.418Z,6.30
2024-03-07T09:20:16.737Z,6.40
2024-03-07T09:22:44.552Z,6.40
2024-03-07T09:25:11.624Z,6.50
2024-03-07T09:27:38.816Z,6.60
2024-03-07T09:30:10.383Z,6.60
2024-03-07T09:32:38.523Z,6.60
2024-03-07T09:35:08.310Z,6.60
2024-03-07T09:37:34.933Z,6.60
2024-03-07T09:40:01.632Z,6.70
2024-03-07T09:42:29.051Z,6.80
2024-03-07T09:44:57.713Z,6.80
2024-03-07T09:47:24.490Z,6.80
2024-03-07T09:49:53.039Z,6.80
2024-03-07T09:52:21.717Z,6.90
2024-03-07T09:54:48.428Z,6.90
2024-03-07T09:59:47.391Z,7.00
2024-03-07T10:02:16.474Z,7.00
2024-03-07T10:04:46.324Z,7.10
2024-03-07T10:07:14.874Z,7.00
2024-03-07T10:09:42.932Z,7.10
2024-03-07T10:12:16.379Z,7.10
2024-03-07T10:14:53.663Z,7.10
2024-03-07T10:17:20.360Z,7.10
2024-03-07T10:19:52.018Z,7.10
2024-03-07T10:22:19.723Z,7.20
2024-03-07T10:24:59.675Z,7.30
2024-03-07T10:27:29.042Z,7.30
2024-03-07T10:29:56.945Z,7.30
2024-03-07T10:32:24.257Z,7.40
2024-03-07T10:34:55.775Z,7.40
2024-03-07T10:37:22.426Z,7.40
2024-03-07T10:39:52.509Z,7.40
2024-03-07T10:42:20.441Z,7.50
2024-03-07T10:44:48.829Z,7.50
2024-03-07T10:47:18.832Z,7.60
2024-03-07T10:50:17.139Z,7.60
2024-03-07T10:52:58.996Z,7.60
2024-03-07T10:55:39.647Z,7.60
2024-03-07T10:58:21.865Z,7.70
2024-03-07T11:00:49.170Z,7.80
2024-03-07T11:03:16.503Z,7.80
2024-03-07T11:05:44.821Z,7.90
2024-03-07T11:08:15.199Z,7.90
2024-03-07T11:10:42.106Z,8.10
2024-03-07T11:13:13.129Z,8.00
2024-03-07T11:15:43.691Z,8.10
2024-03-07T11:18:13.898Z,8.10
2024-03-07T11:20:41.989Z,8.10
2024-03-07T11:23:33.908Z,8.10
2024-03-07T11:26:11.418Z,8.00
2024-03-07T11:28:39.834Z,7.90
2024-03-07T11:31:16.197Z,7.90
2024-03-07T11:33:44.869Z,7.90
2024-03-07T11:36:13.139Z,7.90
2024-03-07T11:38:49.754Z,6.00
2024-03-07T11:41:20.538Z,8.00
2024-03-07T11:43:47.868Z,8.10
2024-03-07T11:46:18.040Z,8.10
2024-03-07T11:48:45.440Z,8.20
2024-03-07T11:51:18.612Z,8.30
2024-03-07T11:53:48.782Z,8.30
2024-03-07T11:56:17.642Z,8.30
2024-03-07T11:58:46.043Z,8.40
2024-03-07T12:01:14.872Z,8.50
2024-03-07T12:03:41.938Z,8.50
2024-03-07T12:06:13.824Z,8.50
2024-03-07T12:08:42.863Z,8.50
2024-03-07T12:11:13.834Z,8.70
2024-03-07T12:13:41.764Z,8.70
2024-03-07T12:16:09.338Z,8.70
2024-03-07T12:18:37.379Z,8.70
2024-03-07T12:21:07.855Z,8.60
2024-03-07T12:23:34.844Z,8.60
2024-03-07T12:26:05.739Z,8.50
2024-03-07T12:28:36.956Z,8.50
2024-03-07T12:31:05.110Z,8.50
2024-03-07T12:33:33.557Z,8.60
2024-03-07T12:36:09.615Z,8.60
2024-03-07T12:38:38.470Z,8.60
2024-03-07T12:41:14.666Z,8.50
2024-03-07T12:43:44.956Z,8.60
2024-03-07T12:46:16.414Z,8.60
2024-03-07T12:48:45.943Z,8.70
2024-03-07T12:51:18.299Z,8.60
2024-03-07T12:53:47.488Z,8.60
2024-03-07T12:56:17.466Z,8.50
2024-03-07T12:58:47.508Z,8.50
2024-03-07T13:01:15.148Z,8.50
2024-03-07T13:03:43.824Z,8.50
2024-03-07T13:06:12.093Z,8.50
2024-03-07T13:08:38.857Z,8.50
2024-03-07T13:11:06.839Z,8.50
2024-03-07T13:13:33.695Z,8.50
2024-03-07T13:16:00.693Z,8.80
2024-03-07T13:18:27.640Z,8.60
2024-03-07T13:20:54.418Z,8.60
2024-03-07T13:23:21.374Z,8.60
2024-03-07T13:25:49.824Z,8.70
2024-03-07T13:28:25.410Z,8.70
2024-03-07T13:30:55.591Z,6.80
2024-03-07T13:33:22.417Z,8.70
2024-03-07T13:35:49.523Z,8.70
2024-03-07T13:38:16.603Z,8.70
2024-03-07T13:40:43.355Z,8.80
2024-03-07T13:43:10.351Z,8.70
2024-03-07T13:45:41.076Z,8.70
2024-03-07T13:48:09.336Z,8.80
2024-03-07T13:50:51.022Z,8.70
2024-03-07T13:53:24.024Z,8.70
2024-03-07T13:56:13.910Z,8.70
2024-03-07T13:59:46.783Z,8.70
2024-03-07T14:02:45.573Z,8.70
2024-03-07T14:05:33.357Z,8.80
2024-03-07T14:08:37.299Z,8.80
2024-03-07T14:11:30.994Z,8.90
2024-03-07T14:14:27.471Z,8.90
2024-03-07T14:17:07.566Z,8.80
2024-03-07T14:20:19.945Z,8.90
2024-03-07T14:23:07.692Z,9.00
2024-03-07T14:26:14.812Z,9.10
2024-03-07T14:28:42.609Z,9.00
2024-03-07T14:31:12.527Z,8.90
2024-03-07T14:34:07.263Z,8.90
2024-03-07T14:36:46.188Z,8.90
2024-03-07T14:39:23.407Z,8.90
2024-03-07T14:42:02.055Z,8.90
2024-03-07T14:44:29.616Z,8.90
2024-03-07T14:47:01.578Z,8.90
2024-03-07T14:49:29.580Z,8.90
2024-03-07T14:52:00.569Z,8.80
2024-03-07T14:54:28.935Z,8.80
2024-03-07T14:56:56.003Z,8.80
2024-03-07T14:59:23.672Z,8.80
2024-03-07T15:01:51.545Z,8.70
2024-03-07T15:04:19.152Z,8.70
2024-03-07T15:06:46.908Z,8.70
2024-03-07T15:09:14.814Z,8.70
2024-03-07T15:11:41.938Z,8.70
2024-03-07T15:14:12.276Z,8.70
2024-03-07T15:16:40.243Z,8.70
2024-03-07T15:19:09.051Z,8.70
2024-03-07T15:21:38.723Z,8.70
2024-03-07T15:24:06.039Z,8.70
2024-03-07T15:26:32.976Z,8.70
2024-03-07T15:29:01.582Z,8.70
2024-03-07T15:31:28.572Z,8.60
2024-03-07T15:33:55.702Z,8.50
2024-03-07T15:36:23.319Z,8.60
2024-03-07T15:38:50.744Z,8.60
2024-03-07T15:41:17.652Z,8.60
2024-03-07T15:43:44.730Z,8.60
2024-03-07T15:46:23.642Z,8.60
2024-03-07T15:48:50.821Z,8.50
2024-03-07T15:51:18.729Z,8.50
2024-03-07T15:53:45.939Z,8.50
2024-03-07T15:56:14.623Z,8.40
2024-03-07T15:58:41.491Z,8.30
2024-03-07T16:01:08.354Z,8.30
2024-03-07T16:03:35.041Z,8.30
2024-03-07T16:06:02.773Z,8.20
2024-03-07T16:08:30.186Z,8.30
2024-03-07T16:10:56.885Z,8.20
2024-03-07T16:13:25.164Z,8.20
2024-03-07T16:15:52.628Z,8.10
2024-03-07T16:18:23.766Z,8.10
2024-03-07T16:20:50.661Z,8.00
2024-03-07T16:23:18.094Z,8.00
2024-03-07T16:25:45.401Z,8.00
2024-03-07T16:28:13.121Z,7.90
2024-03-07T16:30:45.443Z,7.90
2024-03-07T16:33:13.181Z,8.00
2024-03-07T16:35:40.457Z,8.00
2024-03-07T16:38:10.467Z,8.10
2024-03-07T16:40:42.631Z,8.10
2024-03-07T16:43:12.515Z,8.10
2024-03-07T16:45:40.509Z,8.10
2024-03-07T16:48:11.917Z,8.00
2024-03-07T16:50:41.460Z,8.00
2024-03-07T16:53:08.834Z,7.90
2024-03-07T16:55:40.007Z,7.80
2024-03-07T16:58:14.006Z,7.60
2024-03-07T17:00:43.299Z,7.50
2024-03-07T17:03:11.531Z,7.40
2024-03-07T17:05:41.117Z,7.40
2024-03-07T17:08:09.031Z,7.30
2024-03-07T17:10:39.890Z,7.20
2024-03-07T17:13:14.309Z,7.20
2024-03-07T17:15:43.498Z,7.10
2024-03-07T17:18:11.777Z,7.10
2024-03-07T17:23:09.488Z,7.00
2024-03-07T17:25:36.922Z,7.00
2024-03-07T17:28:04.274Z,6.90
2024-03-07T17:30:30.949Z,6.90
2024-03-07T17:32:59.812Z,6.80
2024-03-07T17:35:29.301Z,6.80
2024-03-07T17:37:56.457Z,6.80
2024-03-07T17:40:27.464Z,6.70
2024-03-07T17:42:55.002Z,6.60
2024-03-07T17:45:29.626Z,6.60
2024-03-07T17:48:00.720Z,6.50
2024-03-07T17:50:28.450Z,6.50
2024-03-07T17:52:59.312Z,6.40
2024-03-07T17:55:26.005Z,6.40
2024-03-07T17:57:52.685Z,6.30
2024-03-07T18:00:28.889Z,6.30
2024-03-07T18:02:56.668Z,6.20
2024-03-07T18:05:27.072Z,6.20
2024-03-07T18:07:57.942Z,6.10
2024-03-07T18:10:32.206Z,6.10
2024-03-07T18:12:58.886Z,6.10
2024-03-07T18:15:28.770Z,5.90
2024-03-07T18:17:59.742Z,6.00
2024-03-07T18:20:28.194Z,6.00
2024-03-07T18:22:55.823Z,5.90
2024-03-07T18:25:25.965Z,5.80
2024-03-07T18:27:59.440Z,5.80
2024-03-07T18:30:26.623Z,5.80
2024-03-07T18:32:53.708Z,5.80
2024-03-07T18:35:23.788Z,5.70
2024-03-07T18:37:51.890Z,5.70
2024-03-07T18:40:24.119Z,5.60
2024-03-07T18:42:52.316Z,5.60
2024-03-07T18:45:26.238Z,5.60
2024-03-07T18:47:54.182Z,5.50
2024-03-07T18:50:24.020Z,5.60
2024-03-07T18:52:52.623Z,5.50
2024-03-07T18:55:22.804Z,5.50
2024-03-07T18:57:51.899Z,5.50
2024-03-07T19:00:38.085Z,5.50
2024-03-07T19:05:33.930Z,5.40
2024-03-07T19:08:07.612Z,5.40
2024-03-07T19:10:34.261Z,2.50
2024-03-07T19:13:01.118Z,5.30
2024-03-07T19:15:28.107Z,5.30
2024-03-07T19:22:53.841Z,5.20
2024-03-07T19:25:20.844Z,5.30
2024-03-07T19:27:51.560Z,5.30
2024-03-07T19:30:19.096Z,5.30
2024-03-07T19:32:46.814Z,5.30
2024-03-07T19:35:17.308Z,5.30
2024-03-07T19:37:52.576Z,5.20
2024-03-07T19:40:23.136Z,5.30
2024-03-07T19:42:50.802Z,5.30
2024-03-07T19:45:21.707Z,5.30
2024-03-07T19:47:49.393Z,5.30
2024-03-07T19:50:19.319Z,5.30
2024-03-07T19:52:48.400Z,5.30
2024-03-07T19:55:20.761Z,5.20
2024-03-07T19:57:49.456Z,5.20
2024-03-07T20:00:17.537Z,5.20
2024-03-07T20:02:45.710Z,5.10
2024-03-07T20:05:26.645Z,5.10
2024-03-07T20:07:55.141Z,5.10
2024-03-07T20:10:21.930Z,5.20
2024-03-07T20:12:48.777Z,5.20
2024-03-07T20:15:15.731Z,5.10
2024-03-07T20:17:44.631Z,5.10
2024-03-07T20:20:18.116Z,5.10
2024-03-07T20:22:48.910Z,5.10
2024-03-07T20:25:16.426Z,5.10
2024-03-07T20:27:44.446Z,5.10
2024-03-07T20:30:12.404Z,5.10
2024-03-07T20:32:39.530Z,5.10
2024-03-07T20:35:09.342Z,5.00
2024-03-07T20:37:36.633Z,5.00
2024-03-07T20:40:11.355Z,5.10
2024-03-07T20:42:39.514Z,4.90
2024-03-07T20:45:10.188Z,4.90
2024-03-07T20:47:46.329Z,4.90
2024-03-07T20:50:16.633Z,5.10
2024-03-07T20:52:46.896Z,4.80
2024-03-07T20:55:18.363Z,4.80
2024-03-07T20:57:53.280Z,4.80
2024-03-07T21:00:34.308Z,4.80
2024-03-07T21:05:28.384Z,4.80
2024-03-07T21:07:55.106Z,4.70
2024-03-07T21:10:29.538Z,4.70
2024-03-07T21:12:56.489Z,4.70
2024-03-07T21:20:21.951Z,4.60
2024-03-07T21:22:51.131Z,4.60
2024-03-07T21:25:19.516Z,4.50
2024-03-07T21:27:47.835Z,4.50
2024-03-07T21:30:15.146Z,4.50
2024-03-07T21:32:42.928Z,4.50
2024-03-07T21:35:12.634Z,4.40
2024-03-07T21:37:43.404Z,4.40
2024-03-07T21:40:13.803Z,4.40
2024-03-07T21:42:40.738Z,4.30
2024-03-07T21:45:07.837Z,4.30
2024-03-07T21:47:37.244Z,4.30
2024-03-07T21:50:05.708Z,4.30
2024-03-07T21:52:32.405Z,4.30
2024-03-07T21:59:55.001Z,4.20
2024-03-07T22:02:22.226Z,4.30
2024-03-07T22:07:20.371Z,4.30
2024-03-07T22:09:47.580Z,4.30
2024-03-07T22:12:15.669Z,4.30
2024-03-07T22:17:10.522Z,4.10
2024-03-07T22:19:40.104Z,4.10
2024-03-07T22:22:06.998Z,4.10
2024-03-07T22:41:47.991Z,4.00
2024-03-07T22:44:14.819Z,4.00
2024-03-07T22:46:41.612Z,4.00
2024-03-07T22:51:35.731Z,3.90
2024-03-07T22:54:02.745Z,3.90
2024-03-07T22:56:29.549Z,3.90
2024-03-07T22:58:56.493Z,3.80
2024-03-07T23:01:31.206Z,2.90
2024-03-07T23:03:58.624Z,3.80
2024-03-07T23:06:26.476Z,3.80
2024-03-07T23:13:49.468Z,3.70
2024-03-07T23:16:16.294Z,3.70
2024-03-07T23:21:10.851Z,3.70
2024-03-07T23:23:37.753Z,3.70
2024-03-07T23:26:04.593Z,3.70
2024-03-07T23:28:31.304Z,3.50
2024-03-07T23:30:58.719Z,3.50
2024-03-07T23:33:25.482Z,3.50
2024-03-07T23:35:52.368Z,3.50
2024-03-07T23:40:46.211Z,3.40
2024-03-07T23:48:08.304Z,3.40
2024-03-07T23:50:34.977Z,3.40
2024-03-07T23:53:02.497Z,3.30
2024-03-07T23:55:29.140Z,3.30
